Time;durP1;ratioP1;P1;durP2;ratioP2;P2;SDS_P1;SDS_P2;PMS_P1;PMS_P2;Temp;Humidity;BMP_temperature;BMP_pressure;BME280_temperature;BME280_humidity;BME280_pressure;Samples;Min_cycle;Max_cycle;Signal;HPM_P1;HPM_P2
2023/07/17 00:01:46;;;;;;;2.55;2.35;;;24.50;52.60;;;;;;5018564;28;20202;-56
2023/07/17 00:04:14;;;;;;;3.42;2.30;;;24.50;52.50;;;;;;5036221;28;20203;-56
2023/07/17 00:06:41;;;;;;;2.80;2.42;;;24.50;52.50;;;;;;5036214;28;20254;-56
2023/07/17 00:09:08;;;;;;;4.53;2.78;;;24.40;52.60;;;;;;5036309;28;20633;-56
2023/07/17 00:11:35;;;;;;;4.25;2.45;;;24.50;52.70;;;;;;5018285;28;20224;-56
2023/07/17 00:14:02;;;;;;;2.67;2.47;;;24.50;52.70;;;;;;5018339;28;20200;-56
2023/07/17 00:16:29;;;;;;;3.40;2.63;;;24.40;52.50;;;;;;5036317;28;20192;-56
2023/07/17 00:18:56;;;;;;;2.35;2.15;;;24.40;52.60;;;;;;5035935;28;20188;-56
2023/07/17 00:21:26;;;;;;;3.05;2.38;;;24.40;52.70;;;;;;5041876;28;20227;-56
2023/07/17 00:23:53;;;;;;;3.38;2.65;;;24.40;52.70;;;;;;5018278;28;20238;-56
2023/07/17 00:26:21;;;;;;;2.90;2.33;;;24.40;52.70;;;;;;5035826;28;20192;-56
2023/07/17 00:28:48;;;;;;;3.22;2.55;;;24.40;52.50;;;;;;5018079;28;20207;-56
2023/07/17 00:31:15;;;;;;;4.22;2.30;;;24.30;52.70;;;;;;5017848;28;20262;-56
2023/07/17 00:33:42;;;;;;;2.70;2.38;;;24.30;52.60;;;;;;5017982;28;20307;-56
2023/07/17 00:36:09;;;;;;;4.15;2.15;;;24.30;52.60;;;;;;5017852;28;20684;-56
2023/07/17 00:38:39;;;;;;;3.15;2.50;;;24.30;52.40;;;;;;5016566;28;20611;-56
2023/07/17 00:41:07;;;;;;;3.88;2.50;;;24.30;52.70;;;;;;5017724;28;20216;-56
2023/07/17 00:43:34;;;;;;;3.10;2.47;;;24.30;52.60;;;;;;5017838;28;20246;-56
2023/07/17 00:46:01;;;;;;;4.78;2.63;;;24.30;52.80;;;;;;5035500;28;20219;-56
2023/07/17 00:48:29;;;;;;;2.90;2.42;;;24.30;52.90;;;;;;5017754;28;20200;-56
2023/07/17 00:50:56;;;;;;;2.58;2.38;;;24.30;53.00;;;;;;5017587;28;20231;-56
2023/07/17 00:53:23;;;;;;;4.03;2.42;;;24.30;53.00;;;;;;5017630;28;20247;-56
2023/07/17 00:55:52;;;;;;;3.35;2.72;;;24.30;52.90;;;;;;5017638;28;20200;-56
2023/07/17 00:58:19;;;;;;;3.47;2.65;;;24.30;53.10;;;;;;5035275;28;20184;-56
2023/07/17 01:00:46;;;;;;;3.10;2.50;;;24.20;52.90;;;;;;5017252;28;20314;-55
2023/07/17 01:03:14;;;;;;;3.85;2.67;;;24.20;53.20;;;;;;5017482;28;20678;-56
2023/07/17 01:05:41;;;;;;;2.50;2.30;;;24.20;53.30;;;;;;5017338;28;20662;-56
2023/07/17 01:08:08;;;;;;;3.47;2.60;;;24.20;53.20;;;;;;5035061;28;20283;-56
2023/07/17 01:10:35;;;;;;;2.72;2.35;;;24.20;53.30;;;;;;5017137;28;20219;-56
2023/07/17 01:13:04;;;;;;;2.58;2.22;;;24.20;53.00;;;;;;5017308;28;20212;-56
2023/07/17 01:15:31;;;;;;;5.38;2.83;;;24.20;53.30;;;;;;5017882;28;20692;-56
2023/07/17 01:17:59;;;;;;;3.40;2.40;;;24.20;53.40;;;;;;5017401;28;20231;-56
2023/07/17 01:20:26;;;;;;;3.80;2.70;;;24.20;53.30;;;;;;5034873;28;20311;-56
2023/07/17 01:22:56;;;;;;;4.05;2.40;;;24.20;53.50;;;;;;5017375;28;20202;-56
2023/07/17 01:25:23;;;;;;;3.67;2.60;;;24.20;53.30;;;;;;5018378;28;20246;-56
2023/07/17 01:27:50;;;;;;;3.70;2.50;;;24.20;53.40;;;;;;5018079;28;20283;-56
2023/07/17 01:30:17;;;;;;;2.42;2.22;;;24.20;53.50;;;;;;5016952;28;20226;-56
2023/07/17 01:32:45;;;;;;;4.93;2.80;;;24.20;53.50;;;;;;5016815;28;20220;-56
2023/07/17 01:35:11;;;;;;;2.78;2.28;;;24.20;53.50;;;;;;5034667;28;20281;-56
2023/07/17 01:37:40;;;;;;;4.22;2.80;;;24.20;53.40;;;;;;5034658;28;20250;-56
2023/07/17 01:40:10;;;;;;;2.90;2.60;;;24.20;53.50;;;;;;5034420;28;20287;-56
2023/07/17 01:42:37;;;;;;;3.28;2.50;;;24.10;53.50;;;;;;5016757;28;20196;-56
2023/07/17 01:45:05;;;;;;;3.10;2.60;;;24.20;53.50;;;;;;5017231;28;20667;-56
2023/07/17 01:47:32;;;;;;;2.53;2.33;;;24.20;53.50;;;;;;5016559;28;20206;-56
2023/07/17 01:50:01;;;;;;;3.72;2.47;;;24.20;53.50;;;;;;5015991;28;20211;-56
2023/07/17 01:52:30;;;;;;;2.30;2.10;;;24.20;53.70;;;;;;5034551;28;20286;-56
2023/07/17 01:54:58;;;;;;;5.32;2.40;;;24.20;53.60;;;;;;5034169;28;20196;-56
2023/07/17 01:57:26;;;;;;;4.57;2.50;;;24.20;53.70;;;;;;5016494;28;20202;-56
2023/07/17 01:59:53;;;;;;;2.42;2.20;;;24.10;53.70;;;;;;5016189;28;20302;-56
2023/07/17 02:02:20;;;;;;;3.47;2.33;;;24.10;53.60;;;;;;5016368;28;20283;-56
2023/07/17 02:04:47;;;;;;;3.70;2.45;;;24.20;53.70;;;;;;5016307;28;20286;-56
2023/07/17 02:07:14;;;;;;;3.03;2.45;;;24.20;53.60;;;;;;5016285;28;20203;-56
2023/07/17 02:09:41;;;;;;;3.50;2.45;;;24.10;53.50;;;;;;5016124;28;20311;-56
2023/07/17 02:12:09;;;;;;;4.82;2.63;;;24.10;54.30;;;;;;5016027;28;20220;-56
2023/07/17 02:14:37;;;;;;;3.33;2.50;;;24.20;53.80;;;;;;5016119;28;20210;-56
2023/07/17 02:17:09;;;;;;;3.35;2.67;;;24.20;53.90;;;;;;5016166;28;20541;-56
2023/07/17 02:19:38;;;;;;;3.60;2.63;;;24.10;53.90;;;;;;5033631;28;20759;-56
2023/07/17 02:22:05;;;;;;;3.30;2.22;;;24.20;54.00;;;;;;5016014;28;20200;-56
2023/07/17 02:24:32;;;;;;;2.72;2.35;;;24.20;54.00;;;;;;5033654;28;20278;-56
2023/07/17 02:27:01;;;;;;;4.68;2.50;;;24.20;54.10;;;;;;5033622;28;20610;-56
2023/07/17 02:29:28;;;;;;;3.42;2.40;;;24.10;54.00;;;;;;5015789;28;20290;-56
2023/07/17 02:31:57;;;;;;;3.17;2.40;;;24.20;54.10;;;;;;5015810;28;20234;-56
2023/07/17 02:34:25;;;;;;;2.50;2.30;;;24.10;54.10;;;;;;5015850;28;20203;-56
2023/07/17 02:36:53;;;;;;;2.30;2.10;;;24.10;54.20;;;;;;5033435;28;20184;-56
2023/07/17 02:39:20;;;;;;;3.30;2.33;;;24.20;54.40;;;;;;5033988;28;20223;-56
2023/07/17 02:41:47;;;;;;;3.45;2.40;;;24.10;54.20;;;;;;5015606;28;20254;-56
2023/07/17 02:44:15;;;;;;;2.92;2.47;;;24.10;54.20;;;;;;5015680;28;20204;-56
2023/07/17 02:46:42;;;;;;;3.22;2.30;;;24.10;54.30;;;;;;5015679;28;20584;-56
2023/07/17 02:49:13;;;;;;;2.90;2.50;;;24.20;54.40;;;;;;5015496;28;20204;-56
2023/07/17 02:51:40;;;;;;;3.55;2.10;;;24.10;54.40;;;;;;5015573;28;20188;-56
2023/07/17 02:54:08;;;;;;;4.35;2.38;;;24.10;54.40;;;;;;5033218;28;20216;-56
2023/07/17 02:56:35;;;;;;;3.30;2.15;;;24.10;54.40;;;;;;5015506;28;20196;-56
2023/07/17 02:59:03;;;;;;;3.75;2.70;;;24.10;54.50;;;;;;5015360;28;20204;-55
2023/07/17 03:01:29;;;;;;;3.80;2.42;;;24.20;54.60;;;;;;5014512;28;20208;-56
2023/07/17 03:03:57;;;;;;;3.15;2.40;;;24.10;54.40;;;;;;5015445;28;20658;-56
2023/07/17 03:06:25;;;;;;;3.80;2.22;;;24.10;54.60;;;;;;5033652;28;20199;-56
2023/07/17 03:08:52;;;;;;;3.80;2.45;;;24.10;54.80;;;;;;5032542;23;20237;-84
2023/07/17 03:11:20;;;;;;;3.15;2.38;;;24.10;55.00;;;;;;4997579;28;20307;-84
2023/07/17 03:13:48;;;;;;;2.92;2.40;;;24.10;55.50;;;;;;5003844;28;20216;-84
2023/07/17 03:16:15;;;;;;;2.85;2.30;;;24.20;55.10;;;;;;5018844;28;20204;-84
2023/07/17 03:18:42;;;;;;;3.25;2.10;;;24.20;55.10;;;;;;5018063;28;20212;-85
2023/07/17 03:21:09;;;;;;;3.83;2.60;;;24.20;55.00;;;;;;4994218;28;20288;-84
2023/07/17 03:23:37;;;;;;;4.05;2.28;;;24.30;54.90;;;;;;4978448;28;20201;-84
2023/07/17 03:26:05;;;;;;;3.97;2.47;;;24.40;54.80;;;;;;4994964;28;20197;-84
2023/07/17 03:28:32;;;;;;;2.75;2.33;;;24.40;54.60;;;;;;4994536;28;20212;-84
2023/07/17 03:30:59;;;;;;;4.30;2.40;;;24.50;54.40;;;;;;4994805;28;20225;-84
2023/07/17 03:33:26;;;;;;;3.97;2.47;;;24.60;54.10;;;;;;4995378;28;20213;-84
2023/07/17 03:35:54;;;;;;;3.55;2.40;;;24.50;54.10;;;;;;4995814;28;20193;-84
2023/07/17 03:38:21;;;;;;;3.65;2.42;;;24.50;54.10;;;;;;4995632;28;20284;-84
2023/07/17 03:40:50;;;;;;;3.65;2.20;;;24.50;54.20;;;;;;4995876;28;20253;-84
2023/07/17 03:43:17;;;;;;;3.17;2.28;;;24.60;54.00;;;;;;4995722;28;20210;-84
2023/07/17 03:45:46;;;;;;;2.20;2.00;;;24.60;53.90;;;;;;4996654;28;20198;-84
2023/07/17 03:48:14;;;;;;;2.35;2.10;;;24.60;53.80;;;;;;4995934;28;20229;-84
2023/07/17 03:50:41;;;;;;;2.63;2.08;;;24.50;53.80;;;;;;4980292;28;20214;-83
2023/07/17 03:53:09;;;;;;;3.03;2.22;;;24.50;54.00;;;;;;4996511;28;20659;-83
2023/07/17 03:55:37;;;;;;;3.25;2.35;;;24.50;54.10;;;;;;4997448;28;20205;-84
2023/07/17 03:58:06;;;;;;;4.75;2.20;;;24.50;54.30;;;;;;4997652;28;20292;-85
2023/07/17 04:00:33;;;;;;;2.13;1.90;;;24.50;54.30;;;;;;4997853;28;20610;-84
2023/07/17 04:03:00;;;;;;;2.60;2.40;;;24.50;54.30;;;;;;4999983;28;20200;-84
2023/07/17 04:05:33;;;;;;;2.97;2.50;;;24.50;54.20;;;;;;4997975;28;20197;-82
2023/07/17 04:08:01;;;;;;;3.78;2.40;;;24.50;54.30;;;;;;4997161;28;20205;-84
2023/07/17 04:10:28;;;;;;;5.10;2.42;;;24.50;54.20;;;;;;4996324;28;20222;-84
2023/07/17 04:12:55;;;;;;;4.10;2.35;;;24.40;54.80;;;;;;4998416;28;20296;-83
2023/07/17 04:15:24;;;;;;;3.47;2.55;;;24.10;55.20;;;;;;4998945;28;20193;-83
2023/07/17 04:17:51;;;;;;;4.63;2.60;;;23.90;55.70;;;;;;4999023;28;20236;-83
2023/07/17 04:20:19;;;;;;;4.55;2.65;;;23.80;56.20;;;;;;4999692;28;20224;-84
2023/07/17 04:22:46;;;;;;;4.03;2.70;;;23.60;56.40;;;;;;4999089;28;20244;-83
2023/07/17 04:25:13;;;;;;;5.30;2.47;;;23.40;57.10;;;;;;4997952;28;20678;-83
2023/07/17 04:27:41;;;;;;;5.97;2.80;;;23.30;57.50;;;;;;4981205;28;20205;-83
2023/07/17 04:30:10;;;;;;;3.85;2.85;;;23.10;58.10;;;;;;4997641;28;20241;-83
2023/07/17 04:32:38;;;;;;;4.13;2.60;;;23.00;58.40;;;;;;4997799;28;20221;-83
2023/07/17 04:35:07;;;;;;;3.90;2.42;;;22.90;58.70;;;;;;4998089;28;20201;-82
2023/07/17 04:37:35;;;;;;;4.90;2.72;;;22.80;58.80;;;;;;4999620;28;20193;-82
2023/07/17 04:40:03;;;;;;;4.00;2.55;;;22.70;58.90;;;;;;4999151;28;20267;-81
2023/07/17 04:42:30;;;;;;;5.30;2.70;;;22.70;59.20;;;;;;4997943;28;20669;-82
2023/07/17 04:44:57;;;;;;;4.45;2.58;;;22.60;59.50;;;;;;4998144;28;20248;-82
2023/07/17 04:47:24;;;;;;;6.07;2.67;;;22.60;59.30;;;;;;4998713;28;20203;-82
2023/07/17 04:49:53;;;;;;;3.63;2.60;;;22.70;59.20;;;;;;5007551;28;20210;-82
2023/07/17 04:52:22;;;;;;;3.55;2.47;;;22.60;59.00;;;;;;4997259;28;20194;-83
2023/07/17 04:54:49;;;;;;;3.75;2.60;;;22.70;59.10;;;;;;4996504;28;20205;-82
2023/07/17 04:57:18;;;;;;;5.10;2.55;;;22.70;59.20;;;;;;4997296;28;20205;-82
2023/07/17 04:59:46;;;;;;;4.38;2.50;;;22.80;58.50;;;;;;4980186;28;20284;-82
2023/07/17 05:02:12;;;;;;;3.42;2.53;;;22.90;57.90;;;;;;4979975;28;20212;-84
2023/07/17 05:04:39;;;;;;;3.17;2.80;;;23.10;57.90;;;;;;4997713;28;20201;-82
2023/07/17 05:07:08;;;;;;;4.90;2.50;;;23.10;57.70;;;;;;4965685;28;20285;-82
2023/07/17 05:09:36;;;;;;;3.35;2.60;;;23.30;57.50;;;;;;4997939;28;20210;-82
2023/07/17 05:12:03;;;;;;;5.05;2.80;;;23.40;57.30;;;;;;4994502;28;20265;-83
2023/07/17 05:14:33;;;;;;;4.25;2.50;;;23.40;56.80;;;;;;5019507;28;20217;-83
2023/07/17 05:17:01;;;;;;;3.88;2.42;;;23.50;56.60;;;;;;5003057;28;20216;-83
2023/07/17 05:19:28;;;;;;;3.30;2.47;;;23.70;56.60;;;;;;5012861;28;20198;-82
2023/07/17 05:21:55;;;;;;;3.22;2.40;;;23.70;56.40;;;;;;4983955;28;20316;-82
2023/07/17 05:24:25;;;;;;;3.47;2.78;;;23.80;56.20;;;;;;4995534;28;20611;-82
2023/07/17 05:26:52;;;;;;;2.70;2.20;;;23.80;56.00;;;;;;4998322;28;20672;-82
2023/07/17 05:29:19;;;;;;;2.90;2.60;;;23.90;56.00;;;;;;4984470;28;20622;-82
2023/07/17 05:31:47;;;;;;;3.25;2.60;;;24.00;55.90;;;;;;5000932;28;20237;-82
2023/07/17 05:34:13;;;;;;;3.30;2.67;;;24.10;55.70;;;;;;4984367;28;20217;-81
2023/07/17 05:36:41;;;;;;;4.65;2.65;;;24.20;55.60;;;;;;4984413;28;20668;-83
2023/07/17 05:39:08;;;;;;;3.50;2.60;;;24.30;55.30;;;;;;5001286;28;20233;-84
2023/07/17 05:41:36;;;;;;;3.97;2.42;;;24.40;55.00;;;;;;4999762;28;20711;-81
2023/07/17 05:44:04;;;;;;;2.80;2.50;;;24.50;54.80;;;;;;4999254;28;20190;-82
2023/07/17 05:46:31;;;;;;;3.88;2.92;;;24.60;54.60;;;;;;4998624;28;20206;-82
2023/07/17 05:48:58;;;;;;;3.10;2.20;;;24.60;54.50;;;;;;4997742;28;20587;-82
2023/07/17 05:51:25;;;;;;;4.10;2.75;;;24.70;54.40;;;;;;4996922;28;20260;-82
2023/07/17 05:56:52;;;;;;;2.90;2.40;;;24.70;54.20;;;;;;4961246;29;20285;-80
2023/07/17 05:59:19;;;;;;;3.00;2.40;;;24.80;54.00;;;;;;4959200;29;20207;-80
2023/07/17 06:01:46;;;;;;;3.88;2.60;;;24.90;54.20;;;;;;4956206;28;20237;-80
2023/07/17 06:04:13;;;;;;;3.97;2.70;;;25.00;53.80;;;;;;4940150;29;20287;-80
2023/07/17 06:06:40;;;;;;;3.35;2.35;;;25.10;53.60;;;;;;4957246;29;20262;-80
2023/07/17 06:09:07;;;;;;;5.47;2.63;;;25.30;53.30;;;;;;4955792;28;20628;-80
2023/07/17 06:11:36;;;;;;;3.15;2.25;;;25.50;52.80;;;;;;4956058;28;20223;-80
2023/07/17 06:14:04;;;;;;;2.95;2.30;;;25.60;52.40;;;;;;4955657;28;20695;-80
2023/07/17 06:16:31;;;;;;;5.28;2.70;;;25.80;51.90;;;;;;4957110;29;20300;-80
2023/07/17 06:18:57;;;;;;;4.97;2.55;;;26.00;51.50;;;;;;4956356;28;20203;-80
2023/07/17 06:21:24;;;;;;;2.53;2.22;;;26.10;51.10;;;;;;4956052;28;20245;-80
2023/07/17 06:23:51;;;;;;;2.55;2.20;;;26.30;50.70;;;;;;4955705;29;20199;-79
2023/07/17 06:26:19;;;;;;;4.55;2.50;;;26.40;50.60;;;;;;4924316;29;20245;-79
2023/07/17 06:28:47;;;;;;;3.08;2.63;;;26.50;50.10;;;;;;4939940;29;20665;-79
2023/07/17 06:31:15;;;;;;;2.78;2.42;;;26.60;49.90;;;;;;4923976;29;20697;-79
2023/07/17 06:33:43;;;;;;;2.92;2.63;;;26.70;49.50;;;;;;4956493;29;20226;-79
2023/07/17 06:36:10;;;;;;;2.67;2.22;;;26.80;49.20;;;;;;4939371;29;20234;-79
2023/07/17 06:38:37;;;;;;;2.47;2.28;;;27.00;49.00;;;;;;4939201;29;20203;-79
2023/07/17 06:41:04;;;;;;;2.13;1.92;;;27.00;48.70;;;;;;4956283;28;20225;-79
2023/07/17 06:43:31;;;;;;;2.88;2.40;;;27.10;48.50;;;;;;4958472;29;20195;-79
2023/07/17 06:45:58;;;;;;;3.53;2.33;;;27.20;48.30;;;;;;4940800;29;20202;-79
2023/07/17 06:48:27;;;;;;;4.05;2.55;;;27.30;48.00;;;;;;4940012;29;20241;-79
2023/07/17 06:50:54;;;;;;;2.33;2.13;;;27.40;47.80;;;;;;4955473;28;20222;-79
2023/07/17 06:53:21;;;;;;;2.90;2.60;;;27.50;47.60;;;;;;4939296;29;20214;-79
2023/07/17 06:55:56;;;;;;;2.72;2.50;;;27.60;47.40;;;;;;4939007;29;20206;-79
2023/07/17 06:58:23;;;;;;;3.53;2.30;;;27.70;47.20;;;;;;4924424;29;20204;-79
2023/07/17 07:00:55;;;;;;;4.25;2.80;;;27.70;46.90;;;;;;4955068;28;20226;-79
2023/07/17 07:03:22;;;;;;;2.40;2.20;;;27.80;46.80;;;;;;4955013;28;20281;-79
2023/07/17 07:05:57;;;;;;;3.72;2.50;;;27.90;46.60;;;;;;4938760;29;20256;-79
2023/07/17 07:08:25;;;;;;;2.90;2.60;;;27.90;46.30;;;;;;4954850;29;20617;-79
2023/07/17 07:10:52;;;;;;;3.45;2.30;;;28.00;46.20;;;;;;4956392;28;20707;-79
2023/07/17 07:13:20;;;;;;;2.83;2.42;;;28.10;46.00;;;;;;4955327;28;20224;-79
2023/07/17 07:15:48;;;;;;;2.85;2.22;;;28.10;45.80;;;;;;4938906;29;20213;-79
2023/07/17 07:18:15;;;;;;;2.92;2.30;;;28.20;46.30;;;;;;4923588;29;20202;-79
2023/07/17 07:20:42;;;;;;;3.10;2.30;;;28.20;45.60;;;;;;4955382;28;20228;-79
2023/07/17 07:23:10;;;;;;;4.93;2.40;;;28.30;46.00;;;;;;4955020;28;20561;-79
2023/07/17 07:25:37;;;;;;;3.50;2.60;;;28.30;45.20;;;;;;4938718;29;20202;-79
2023/07/17 07:28:04;;;;;;;3.45;2.50;;;28.40;45.00;;;;;;4954887;28;20257;-79
2023/07/17 07:30:31;;;;;;;2.47;2.28;;;28.40;44.90;;;;;;4924119;29;20218;-79
2023/07/17 07:32:58;;;;;;;3.22;2.35;;;28.50;44.90;;;;;;4923201;29;20248;-79
2023/07/17 07:35:25;;;;;;;2.60;2.40;;;28.50;44.60;;;;;;4955248;28;20230;-79
2023/07/17 07:37:53;;;;;;;3.08;2.38;;;28.60;44.50;;;;;;4954680;29;20230;-79
2023/07/17 07:40:21;;;;;;;3.05;2.67;;;28.60;44.40;;;;;;4954631;28;20214;-79
2023/07/17 07:42:48;;;;;;;2.78;2.42;;;28.60;44.20;;;;;;4954649;29;20202;-79
2023/07/17 07:45:16;;;;;;;3.67;2.72;;;28.70;44.10;;;;;;4954610;29;20202;-79
2023/07/17 07:47:44;;;;;;;2.50;2.30;;;28.70;43.90;;;;;;4956986;28;20209;-79
2023/07/17 07:50:11;;;;;;;2.47;2.28;;;28.80;44.00;;;;;;4958172;28;20232;-79
2023/07/17 07:52:38;;;;;;;2.70;2.50;;;28.80;43.90;;;;;;4942251;29;20280;-79
2023/07/17 07:55:06;;;;;;;2.83;2.30;;;28.80;43.60;;;;;;4958041;29;20253;-79
2023/07/17 07:57:34;;;;;;;3.78;2.50;;;28.90;43.50;;;;;;4942382;29;20323;-79
2023/07/17 08:00:02;;;;;;;2.65;2.40;;;28.90;43.70;;;;;;4957814;28;20581;-79
2023/07/17 08:02:40;;;;;;;2.35;2.15;;;28.90;43.70;;;;;;4959109;29;20188;-79
2023/07/17 08:05:08;;;;;;;3.13;2.35;;;28.90;43.60;;;;;;4926102;29;20553;-79
2023/07/17 08:07:35;;;;;;;2.40;2.20;;;28.90;43.50;;;;;;4958034;29;20605;-79
2023/07/17 08:10:03;;;;;;;2.80;2.50;;;28.90;43.60;;;;;;4958482;28;20214;-79
2023/07/17 08:12:30;;;;;;;2.30;2.08;;;29.00;43.60;;;;;;4941851;29;20206;-79
2023/07/17 08:14:59;;;;;;;2.83;2.50;;;29.00;43.40;;;;;;4957732;29;20764;-79
2023/07/17 08:17:26;;;;;;;2.90;2.70;;;29.10;43.30;;;;;;4941622;29;20198;-79
2023/07/17 08:19:53;;;;;;;2.78;2.42;;;29.10;43.10;;;;;;4957843;28;20604;-79
2023/07/17 08:22:20;;;;;;;2.80;2.20;;;29.10;43.10;;;;;;4957601;28;20198;-79
2023/07/17 08:24:47;;;;;;;2.75;2.50;;;29.20;43.00;;;;;;4957371;28;20198;-79
2023/07/17 08:27:15;;;;;;;3.00;2.50;;;29.20;42.70;;;;;;4925854;29;20386;-79
2023/07/17 08:29:42;;;;;;;3.10;2.70;;;29.30;42.50;;;;;;4958507;28;20190;-79
2023/07/17 08:32:10;;;;;;;2.70;2.47;;;29.30;42.60;;;;;;4957531;28;20194;-79
2023/07/17 08:34:38;;;;;;;3.70;2.70;;;29.30;42.50;;;;;;4957184;28;20253;-79
2023/07/17 08:37:05;;;;;;;3.00;2.70;;;29.30;42.40;;;;;;4957311;28;20202;-79
2023/07/17 08:39:32;;;;;;;3.17;2.53;;;29.40;42.20;;;;;;4957284;28;20198;-79
2023/07/17 08:41:59;;;;;;;4.68;2.80;;;29.40;41.80;;;;;;4941342;29;20272;-79
2023/07/17 08:44:27;;;;;;;3.33;2.47;;;29.40;41.60;;;;;;4958396;29;20190;-79
2023/07/17 08:46:54;;;;;;;3.15;2.60;;;29.50;41.70;;;;;;4957153;29;20269;-79
2023/07/17 08:49:23;;;;;;;3.10;2.58;;;29.50;41.60;;;;;;4940909;29;20661;-79
2023/07/17 08:51:50;;;;;;;2.70;2.50;;;29.60;41.60;;;;;;4957251;28;20232;-79
2023/07/17 08:54:17;;;;;;;3.72;2.60;;;29.60;41.70;;;;;;4925237;29;20222;-79
2023/07/17 08:56:44;;;;;;;2.72;2.50;;;29.50;41.90;;;;;;4940988;29;20655;-79
2023/07/17 08:59:11;;;;;;;3.50;2.40;;;29.40;41.90;;;;;;4939750;29;20242;-79
2023/07/17 09:01:38;;;;;;;3.13;2.55;;;29.50;42.10;;;;;;4958309;28;20217;-79
2023/07/17 09:04:06;;;;;;;2.58;2.38;;;29.50;41.90;;;;;;4957123;29;20198;-79
2023/07/17 09:06:34;;;;;;;2.85;2.53;;;29.60;41.80;;;;;;4956831;29;20209;-79
2023/07/17 09:09:02;;;;;;;2.60;2.40;;;29.60;41.70;;;;;;4956732;28;20293;-79
2023/07/17 09:11:29;;;;;;;2.72;2.53;;;29.60;41.60;;;;;;4940716;29;20225;-79
2023/07/17 09:13:56;;;;;;;2.88;2.53;;;29.50;41.50;;;;;;4956946;29;20723;-79
2023/07/17 09:16:24;;;;;;;3.88;2.63;;;29.40;41.60;;;;;;4940814;29;20205;-79
2023/07/17 09:18:52;;;;;;;3.10;2.60;;;29.30;41.80;;;;;;4956837;29;20202;-79
2023/07/17 09:21:20;;;;;;;3.15;2.40;;;29.30;42.00;;;;;;4956589;28;20222;-79
2023/07/17 09:23:49;;;;;;;2.50;2.30;;;29.30;42.20;;;;;;4956831;28;20202;-79
2023/07/17 09:26:17;;;;;;;2.55;2.35;;;29.40;42.30;;;;;;4956770;28;20297;-79
2023/07/17 09:28:49;;;;;;;2.85;2.65;;;29.40;42.20;;;;;;4957280;29;20206;-79
2023/07/17 09:31:16;;;;;;;3.00;2.42;;;29.40;42.00;;;;;;4956531;28;20222;-79
2023/07/17 09:33:44;;;;;;;2.80;2.60;;;29.50;42.10;;;;;;4957966;29;20241;-79
2023/07/17 09:36:12;;;;;;;2.92;2.60;;;29.40;42.20;;;;;;4957818;29;20198;-79
2023/07/17 09:38:39;;;;;;;2.85;2.30;;;29.40;42.30;;;;;;4957541;29;20186;-79
2023/07/17 09:41:19;;;;;;;3.60;2.50;;;29.30;42.40;;;;;;4940424;29;20221;-79
2023/07/17 09:43:52;;;;;;;3.33;3.00;;;29.30;42.40;;;;;;4956231;29;20214;-79
2023/07/17 09:46:19;;;;;;;3.00;2.80;;;29.40;42.20;;;;;;4957590;28;20191;-79
2023/07/17 09:48:46;;;;;;;2.63;2.42;;;29.40;41.90;;;;;;4957789;29;20210;-79
2023/07/17 09:51:14;;;;;;;3.33;2.85;;;29.50;41.90;;;;;;4941774;29;20233;-79
2023/07/17 09:53:41;;;;;;;2.45;2.25;;;29.40;41.80;;;;;;4940864;29;20333;-79
2023/07/17 09:56:09;;;;;;;2.90;2.63;;;29.30;42.00;;;;;;4939817;29;20222;-79
2023/07/17 09:58:38;;;;;;;2.40;2.20;;;29.30;42.20;;;;;;4940600;29;20218;-79
2023/07/17 10:01:05;;;;;;;2.78;2.53;;;29.40;42.40;;;;;;4941670;29;20233;-79
2023/07/17 10:03:32;;;;;;;2.58;2.33;;;29.30;42.40;;;;;;4956557;28;20203;-79
2023/07/17 10:05:59;;;;;;;3.22;2.65;;;29.30;42.30;;;;;;4940500;29;20608;-79
2023/07/17 10:08:28;;;;;;;2.90;2.42;;;29.30;42.00;;;;;;4956239;28;20201;-79
2023/07/17 10:10:54;;;;;;;3.72;2.78;;;29.30;42.00;;;;;;4924108;29;20265;-77
2023/07/17 10:13:22;;;;;;;3.17;2.90;;;29.30;41.90;;;;;;4939939;29;20205;-79
2023/07/17 10:15:50;;;;;;;3.70;3.00;;;29.30;41.80;;;;;;4956879;29;20210;-79
2023/07/17 10:18:17;;;;;;;3.40;2.47;;;29.40;42.20;;;;;;4942336;29;20206;-79
2023/07/17 10:20:52;;;;;;;2.97;2.60;;;29.30;42.10;;;;;;4942212;29;20282;-79
2023/07/17 10:23:23;;;;;;;3.17;2.88;;;29.30;42.20;;;;;;4955868;28;20201;-80
2023/07/17 10:25:50;;;;;;;2.80;2.60;;;29.30;42.10;;;;;;4957566;29;20210;-79
2023/07/17 10:28:31;;;;;;;2.60;2.40;;;29.20;42.30;;;;;;4939932;29;20206;-79
2023/07/17 10:31:08;;;;;;;3.38;2.40;;;29.20;42.60;;;;;;4939739;29;20309;-79
2023/07/17 10:33:38;;;;;;;3.10;2.80;;;29.20;42.60;;;;;;4955885;29;20194;-79
2023/07/17 10:36:05;;;;;;;3.65;2.45;;;29.20;42.60;;;;;;4957721;28;20363;-78
2023/07/17 10:38:35;;;;;;;2.80;2.60;;;29.10;42.60;;;;;;4955345;28;20202;-78
2023/07/17 10:41:03;;;;;;;3.42;2.80;;;29.10;43.10;;;;;;4955012;28;20225;-78
2023/07/17 10:43:31;;;;;;;3.08;2.78;;;29.00;43.10;;;;;;4939999;29;20198;-78
2023/07/17 10:45:58;;;;;;;2.72;2.53;;;29.00;43.10;;;;;;4955020;29;20544;-78
2023/07/17 10:48:27;;;;;;;3.17;2.75;;;28.90;43.20;;;;;;4954736;29;20265;-78
2023/07/17 10:50:57;;;;;;;3.40;2.50;;;28.90;43.30;;;;;;4954858;28;20218;-78
2023/07/17 10:53:24;;;;;;;2.70;2.50;;;28.80;43.40;;;;;;4923975;29;20241;-78
2023/07/17 10:55:51;;;;;;;2.70;2.38;;;28.80;43.60;;;;;;4938610;29;20218;-78
2023/07/17 10:58:19;;;;;;;2.88;2.67;;;28.80;43.60;;;;;;4954362;29;20197;-78
2023/07/17 11:00:46;;;;;;;2.70;2.50;;;28.80;43.70;;;;;;4922592;29;20230;-78
2023/07/17 11:03:14;;;;;;;3.55;2.85;;;28.70;43.70;;;;;;4938132;29;20213;-78
2023/07/17 11:05:43;;;;;;;3.20;2.90;;;28.70;43.80;;;;;;4954687;28;20579;-78
2023/07/17 11:08:12;;;;;;;2.97;2.67;;;28.60;43.80;;;;;;4954170;29;20202;-78
2023/07/17 11:10:40;;;;;;;2.85;2.50;;;28.60;43.90;;;;;;4954162;28;20707;-78
2023/07/17 11:13:08;;;;;;;3.97;3.15;;;28.50;44.00;;;;;;4938783;29;20202;-78
2023/07/17 11:15:35;;;;;;;2.60;2.40;;;28.50;44.00;;;;;;4939085;29;20222;-78
2023/07/17 11:18:04;;;;;;;2.70;2.45;;;28.50;44.20;;;;;;4938596;29;20297;-78
2023/07/17 11:20:32;;;;;;;2.53;2.33;;;28.40;44.30;;;;;;4953957;28;20235;-78
2023/07/17 11:23:00;;;;;;;2.90;2.60;;;28.40;44.40;;;;;;4937148;29;20256;-78
2023/07/17 11:25:28;;;;;;;3.05;2.75;;;28.40;44.40;;;;;;4937914;29;20198;-78
2023/07/17 11:27:55;;;;;;;2.65;2.45;;;28.40;44.50;;;;;;4937689;29;20217;-78
2023/07/17 11:30:25;;;;;;;2.80;2.60;;;28.40;44.50;;;;;;4954015;28;20222;-78
2023/07/17 11:33:03;;;;;;;2.65;2.45;;;28.40;44.50;;;;;;4937739;29;20293;-78
2023/07/17 11:35:40;;;;;;;3.15;2.70;;;28.40;44.50;;;;;;4937471;29;20759;-78
2023/07/17 11:38:10;;;;;;;2.80;2.60;;;28.40;44.60;;;;;;4955029;29;20582;-78
2023/07/17 11:40:54;;;;;;;2.60;2.40;;;28.40;44.50;;;;;;4937705;29;20232;-78
2023/07/17 11:43:29;;;;;;;2.60;2.40;;;28.50;44.50;;;;;;4953653;28;20193;-78
2023/07/17 11:46:02;;;;;;;2.78;2.55;;;28.50;44.50;;;;;;4956338;29;20194;-78
2023/07/17 11:48:30;;;;;;;3.00;2.70;;;28.50;44.50;;;;;;4940006;29;20825;-78
2023/07/17 11:50:57;;;;;;;2.67;2.38;;;28.50;44.50;;;;;;4956497;28;20240;-78
2023/07/17 11:53:26;;;;;;;2.72;2.53;;;28.50;44.50;;;;;;4957405;29;20206;-78
2023/07/17 11:55:53;;;;;;;2.70;2.50;;;28.50;44.50;;;;;;4922726;29;1099247;-78
2023/07/17 11:58:21;;;;;;;2.60;2.40;;;28.50;44.50;;;;;;4957062;29;20740;-78
2023/07/17 12:00:50;;;;;;;2.97;2.70;;;28.50;44.60;;;;;;4940535;29;20218;-78
2023/07/17 12:03:17;;;;;;;2.53;2.30;;;28.50;44.60;;;;;;4940145;29;20198;-78
2023/07/17 12:05:44;;;;;;;2.70;2.50;;;28.50;45.10;;;;;;4956293;28;20654;-78
2023/07/17 12:08:11;;;;;;;2.88;2.58;;;28.50;44.60;;;;;;4924563;29;20653;-78
2023/07/17 12:10:39;;;;;;;2.70;2.50;;;28.40;44.70;;;;;;4955840;28;20230;-78
2023/07/17 12:13:07;;;;;;;2.60;2.40;;;28.40;44.70;;;;;;4955709;29;20233;-78
2023/07/17 12:15:34;;;;;;;2.95;2.47;;;28.40;44.70;;;;;;4939460;29;20272;-78
2023/07/17 12:18:01;;;;;;;2.47;2.28;;;28.40;44.70;;;;;;4955861;28;20198;-78
2023/07/17 12:20:29;;;;;;;2.60;2.40;;;28.40;44.80;;;;;;4940220;29;20218;-78
2023/07/17 12:22:57;;;;;;;3.00;2.70;;;28.40;44.80;;;;;;4939723;29;20289;-78
2023/07/17 12:25:24;;;;;;;2.60;2.40;;;28.40;44.80;;;;;;4954915;29;20277;-78
2023/07/17 12:27:53;;;;;;;2.53;2.33;;;28.40;44.80;;;;;;4938852;29;20218;-78
2023/07/17 12:30:22;;;;;;;3.00;2.70;;;28.40;44.80;;;;;;4937910;29;20219;-78
2023/07/17 12:32:50;;;;;;;3.08;2.78;;;28.40;44.80;;;;;;4940909;29;20213;-78
2023/07/17 12:35:17;;;;;;;2.80;2.60;;;28.40;44.80;;;;;;4957951;28;20214;-78
2023/07/17 12:37:44;;;;;;;3.03;2.70;;;28.40;45.00;;;;;;4957688;29;20202;-78
2023/07/17 12:40:12;;;;;;;2.60;2.40;;;28.40;45.00;;;;;;4958644;28;20265;-78
2023/07/17 12:42:40;;;;;;;2.70;2.50;;;28.40;45.00;;;;;;4957563;28;20253;-78
2023/07/17 12:45:09;;;;;;;2.85;2.60;;;28.40;45.10;;;;;;4957433;28;20213;-78
2023/07/17 12:47:36;;;;;;;2.95;2.53;;;28.30;45.00;;;;;;4958280;28;20591;-78
2023/07/17 12:50:03;;;;;;;2.70;2.50;;;28.30;45.10;;;;;;4957326;28;20222;-78
2023/07/17 12:52:30;;;;;;;2.65;2.45;;;28.30;45.10;;;;;;4941417;29;20213;-78
2023/07/17 12:54:57;;;;;;;2.83;2.53;;;28.30;45.10;;;;;;4941263;29;20213;-78